createdAt,value
2022-11-12T00:00:53.087Z,102457.09
2022-11-12T00:03:20.204Z,102488.84
2022-11-12T00:05:46.803Z,102487.88
2022-11-12T00:08:13.848Z,102479.06
2022-11-12T00:10:40.244Z,102399.13
2022-11-12T00:13:06.730Z,102361.88
2022-11-12T00:15:33.194Z,102394.88
2022-11-12T00:17:59.576Z,102398.19
2022-11-12T00:20:25.900Z,102438.66
2022-11-12T00:22:52.270Z,102347.53
2022-11-12T00:25:18.638Z,102473.19
2022-11-12T00:27:45.016Z,102423.47
2022-11-12T00:30:11.759Z,102353.28
2022-11-12T00:32:38.282Z,102447.22
2022-11-12T00:35:06.860Z,102479.75
2022-11-12T00:37:35.349Z,102393.84
2022-11-12T00:40:01.804Z,102395.38
2022-11-12T00:42:28.113Z,102347.53
2022-11-12T00:44:54.519Z,102368.69
2022-11-12T00:47:20.855Z,102402.09
2022-11-12T00:49:47.343Z,102331.53
2022-11-12T00:52:13.814Z,102321.28
2022-11-12T00:54:40.288Z,102365.19
2022-11-12T00:57:06.643Z,102473.91
2022-11-12T00:59:33.256Z,102471.34
2022-11-12T01:01:59.645Z,102383.72
2022-11-12T01:04:26.020Z,102403.22
2022-11-12T01:06:52.469Z,102457.53
2022-11-12T01:09:18.817Z,102363.34
2022-11-12T01:11:45.167Z,102426.44
2022-11-12T01:14:11.606Z,102467.59
2022-11-12T01:16:40.351Z,102350.16
2022-11-12T01:19:10.683Z,102336.25
2022-11-12T01:21:39.985Z,102475.53
2022-11-12T01:24:07.088Z,102364.66
2022-11-12T01:26:33.559Z,102434.03
2022-11-12T01:29:00.022Z,102449.03
2022-11-12T01:31:45.589Z,102449.94
2022-11-12T01:34:12.425Z,102451.69
2022-11-12T01:36:39.908Z,102471.13
2022-11-12T01:39:08.819Z,102418.44
2022-11-12T01:41:38.582Z,102477.28
2022-11-12T01:44:10.901Z,102481.72
2022-11-12T01:47:10.173Z,102455.09
2022-11-12T01:49:50.460Z,102423.41
2022-11-12T01:52:26.212Z,102469.06
2022-11-12T01:54:56.534Z,102354.09
2022-11-12T01:57:34.611Z,102322.38
2022-11-12T02:00:05.409Z,102478.56
2022-11-12T02:02:34.322Z,102456.13
2022-11-12T02:05:02.986Z,102452.47
2022-11-12T02:07:30.955Z,102476.19
2022-11-12T02:09:59.814Z,102367.09
2022-11-12T02:12:44.734Z,102457.69
2022-11-12T02:15:11.097Z,102399.84
2022-11-12T02:17:37.604Z,102441.28
2022-11-12T02:20:04.346Z,102423.56
2022-11-12T02:22:30.801Z,102456.97
2022-11-12T02:24:57.144Z,102333.13
2022-11-12T02:27:24.382Z,102291.94
2022-11-12T02:29:51.091Z,102295.59
2022-11-12T02:32:17.430Z,102373.97
2022-11-12T02:34:43.853Z,102417.00
2022-11-12T02:37:10.220Z,102358.16
2022-11-12T02:39:36.703Z,102304.47
2022-11-12T02:42:03.685Z,102470.53
2022-11-12T02:44:31.033Z,102317.59
2022-11-12T02:46:57.361Z,102326.41
2022-11-12T02:49:23.800Z,102413.94
2022-11-12T02:51:50.201Z,102380.78
2022-11-12T02:54:16.684Z,102445.41
2022-11-12T02:56:43.056Z,102421.47
2022-11-12T02:59:09.510Z,102429.28
2022-11-12T03:01:35.831Z,102430.25
2022-11-12T03:04:02.220Z,102425.84
2022-11-12T03:06:28.541Z,102442.50
2022-11-12T03:08:55.228Z,102406.59
2022-11-12T03:11:21.650Z,102413.75
2022-11-12T03:13:47.960Z,102385.63
2022-11-12T03:16:14.385Z,102447.94
2022-11-12T03:18:40.731Z,102310.81
2022-11-12T03:21:07.228Z,102424.69
2022-11-12T03:23:33.637Z,102417.97
2022-11-12T03:26:03.399Z,102426.66
2022-11-12T03:28:30.385Z,102372.22
2022-11-12T03:31:00.421Z,102451.25
2022-11-12T03:33:26.820Z,102452.06
2022-11-12T03:35:53.128Z,102280.69
2022-11-12T03:38:19.612Z,102378.75
2022-11-12T03:40:46.053Z,102429.69
2022-11-12T03:43:12.494Z,102429.56
2022-11-12T03:45:38.919Z,102389.16
2022-11-12T03:48:05.658Z,102416.53
2022-11-12T03:50:32.058Z,102332.59
2022-11-12T03:53:00.071Z,102428.53
2022-11-12T03:55:28.945Z,102363.47
2022-11-12T03:57:57.638Z,102414.09
2022-11-12T04:00:26.701Z,102409.94
2022-11-12T04:02:53.401Z,102410.03
2022-11-12T04:05:38.441Z,102280.69
2022-11-12T04:08:31.665Z,102404.47
2022-11-12T04:10:58.117Z,102394.50
2022-11-12T04:13:27.711Z,102416.47
2022-11-12T04:16:17.308Z,102424.28
2022-11-12T04:19:03.553Z,102401.91
2022-11-12T04:21:55.932Z,102430.19
2022-11-12T04:24:46.528Z,102421.00
2022-11-12T04:27:27.494Z,102431.50
2022-11-12T04:30:12.558Z,102417.53
2022-11-12T04:32:54.556Z,102392.97
2022-11-12T04:35:26.193Z,102389.56
2022-11-12T04:37:52.723Z,102416.69
2022-11-12T04:40:40.718Z,102387.78
2022-11-12T04:43:31.548Z,102377.31
2022-11-12T04:45:58.735Z,102418.09
2022-11-12T04:48:25.924Z,102413.81
2022-11-12T04:50:58.907Z,102403.34
2022-11-12T04:53:25.914Z,102422.47
2022-11-12T04:55:53.900Z,102416.13
2022-11-12T04:58:20.561Z,102416.19
2022-11-12T05:00:47.936Z,102405.66
2022-11-12T05:03:15.120Z,102351.16
2022-11-12T05:05:41.555Z,102158.00
2022-11-12T05:08:08.053Z,102404.94
2022-11-12T05:10:34.613Z,102412.75
2022-11-12T05:13:01.031Z,102379.25
2022-11-12T05:15:27.363Z,102360.72
2022-11-12T05:17:53.778Z,102394.66
2022-11-12T05:20:20.081Z,102382.50
2022-11-12T05:23:04.521Z,102283.66
2022-11-12T05:25:32.479Z,102359.31
2022-11-12T05:27:58.849Z,102285.34
2022-11-12T05:30:25.249Z,102335.19
2022-11-12T05:32:51.604Z,102352.78
2022-11-12T05:35:17.931Z,102275.66
2022-11-12T05:37:44.280Z,102352.22
2022-11-12T05:40:10.965Z,102364.47
2022-11-12T05:42:37.297Z,102346.03
2022-11-12T05:45:04.268Z,102346.03
2022-11-12T05:47:30.610Z,102360.72
2022-11-12T05:49:56.950Z,102326.97
2022-11-12T05:52:23.264Z,102294.66
2022-11-12T05:54:49.611Z,102242.25
2022-11-12T05:57:15.930Z,102317.78
2022-11-12T05:59:42.286Z,102368.66
2022-11-12T06:02:08.697Z,102303.72
2022-11-12T06:04:35.088Z,102354.59
2022-11-12T06:07:04.056Z,102348.56
2022-11-12T06:09:30.550Z,102263.34
2022-11-12T06:11:56.919Z,102275.44
2022-11-12T06:14:23.224Z,102261.28
2022-11-12T06:16:49.565Z,102373.91
2022-11-12T06:19:15.925Z,102350.78
2022-11-12T06:21:42.257Z,102334.53
2022-11-12T06:24:09.176Z,102355.47
2022-11-12T06:26:36.165Z,102278.69
2022-11-12T06:29:02.486Z,102338.63
2022-11-12T06:31:28.812Z,102334.69
2022-11-12T06:33:55.339Z,102365.22
2022-11-12T06:36:21.734Z,102351.97
2022-11-12T06:38:48.744Z,102374.50
2022-11-12T06:41:15.683Z,102326.97
2022-11-12T06:43:42.615Z,102400.81
2022-11-12T06:46:13.461Z,102377.84
2022-11-12T06:48:40.569Z,102400.81
2022-11-12T06:51:10.405Z,102284.09
2022-11-12T06:53:36.767Z,102367.03
2022-11-12T06:56:05.647Z,102374.91
2022-11-12T06:58:31.997Z,102351.47
2022-11-12T07:01:11.144Z,102367.75
2022-11-12T07:03:39.482Z,102396.94
2022-11-12T07:06:11.071Z,102398.06
2022-11-12T07:08:38.152Z,102417.66
2022-11-12T07:11:05.419Z,102311.41
2022-11-12T07:13:33.053Z,102411.13
2022-11-12T07:16:00.731Z,102394.75
2022-11-12T07:18:28.503Z,102419.59
2022-11-12T07:21:05.402Z,102432.13
2022-11-12T07:23:33.568Z,102399.63
2022-11-12T07:26:02.169Z,102421.88
2022-11-12T07:28:29.962Z,102422.84
2022-11-12T07:30:58.679Z,102343.13
2022-11-12T07:33:25.711Z,102317.66
2022-11-12T07:36:02.663Z,102400.19
2022-11-12T07:38:30.418Z,102421.34
2022-11-12T07:41:07.102Z,102425.78
2022-11-12T07:43:35.419Z,102422.31
2022-11-12T07:46:10.485Z,102418.94
2022-11-12T07:48:37.843Z,102353.19
2022-11-12T07:51:25.023Z,102413.88
2022-11-12T07:53:57.896Z,102405.09
2022-11-12T07:56:27.261Z,102403.53
2022-11-12T07:58:53.574Z,102310.44
2022-11-12T08:01:32.348Z,102365.84
2022-11-12T08:04:00.303Z,102403.69
2022-11-12T08:06:27.578Z,102384.47
2022-11-12T08:08:58.478Z,102410.88
2022-11-12T08:11:25.216Z,102378.53
2022-11-12T08:13:51.617Z,102410.88
2022-11-12T08:16:18.411Z,102418.94
2022-11-12T08:18:45.623Z,102403.19
2022-11-12T08:21:14.550Z,102418.19
2022-11-12T08:23:41.963Z,102410.28
2022-11-12T08:26:11.860Z,102434.84
2022-11-12T08:28:38.743Z,102356.81
2022-11-12T08:31:07.308Z,102438.56
2022-11-12T08:33:34.761Z,102439.63
2022-11-12T08:36:05.838Z,102389.75
2022-11-12T08:38:32.795Z,102426.63
2022-11-12T08:41:04.133Z,102425.81
2022-11-12T08:43:30.587Z,102377.66
2022-11-12T08:46:00.878Z,102415.31
2022-11-12T08:48:28.830Z,102448.78
2022-11-12T08:50:56.001Z,102444.50
2022-11-12T08:53:24.006Z,102406.78
2022-11-12T08:55:55.057Z,102429.72
2022-11-12T08:58:21.452Z,102391.16
2022-11-12T09:00:48.011Z,102426.25
2022-11-12T09:03:16.501Z,102436.91
2022-11-12T09:05:43.599Z,102415.94
2022-11-12T09:08:13.342Z,102424.00
2022-11-12T09:10:41.417Z,102438.03
2022-11-12T09:13:09.393Z,102409.25
2022-11-12T09:15:38.374Z,102397.94
2022-11-12T09:18:08.095Z,102432.22
2022-11-12T09:20:34.905Z,102435.84
2022-11-12T09:23:03.989Z,102440.25
2022-11-12T09:25:30.491Z,102413.16
2022-11-12T09:27:56.824Z,102408.84
2022-11-12T09:30:23.544Z,102399.25
2022-11-12T09:32:50.000Z,102408.97
2022-11-12T09:35:16.368Z,102359.97
2022-11-12T09:37:42.675Z,102357.53
2022-11-12T09:40:17.676Z,102423.28
2022-11-12T09:42:53.167Z,102431.22
2022-11-12T09:45:29.831Z,102415.50
2022-11-12T09:48:12.549Z,102411.13
2022-11-12T09:50:49.632Z,102399.75
2022-11-12T09:53:44.293Z,102419.97
2022-11-12T09:56:12.783Z,102434.94
2022-11-12T09:58:39.191Z,102383.31
2022-11-12T10:01:34.836Z,102386.91
2022-11-12T10:04:29.700Z,102401.91
2022-11-12T10:07:05.408Z,102402.03
2022-11-12T10:09:48.101Z,102356.59
2022-11-12T10:12:36.234Z,102419.56
2022-11-12T10:15:43.315Z,102396.78
2022-11-12T10:18:34.771Z,102397.63
2022-11-12T10:21:29.216Z,102421.13
2022-11-12T10:23:56.909Z,102423.69
2022-11-12T10:26:25.956Z,102398.13
2022-11-12T10:29:14.419Z,102404.75
2022-11-12T10:31:40.803Z,102402.28
2022-11-12T10:34:13.352Z,102419.72
2022-11-12T10:36:45.356Z,102392.44
2022-11-12T10:39:34.341Z,102407.91
2022-11-12T10:42:10.009Z,102345.34
2022-11-12T10:44:37.830Z,102365.88
2022-11-12T10:47:33.225Z,102401.19
2022-11-12T10:50:13.803Z,102403.84
2022-11-12T10:52:52.220Z,102367.34
2022-11-12T10:55:22.586Z,102392.41
2022-11-12T10:58:21.592Z,102311.94
2022-11-12T11:00:59.781Z,102390.59
2022-11-12T11:03:34.981Z,102390.28
2022-11-12T11:06:14.412Z,102370.47
2022-11-12T11:09:13.309Z,102381.53
2022-11-12T11:11:51.496Z,102351.50
2022-11-12T11:14:32.838Z,102357.13
2022-11-12T11:17:08.283Z,102326.00
2022-11-12T11:19:40.876Z,102350.44
2022-11-12T11:22:18.803Z,102361.66
2022-11-12T11:25:10.385Z,102360.44
2022-11-12T11:28:05.197Z,102346.97
2022-11-12T11:30:32.454Z,102343.50
2022-11-12T11:33:30.935Z,102364.72
2022-11-12T11:36:12.445Z,102366.81
2022-11-12T11:38:39.513Z,102365.69
2022-11-12T11:41:17.474Z,102364.31
2022-11-12T11:43:59.812Z,102342.75
2022-11-12T11:46:47.499Z,102360.38
2022-11-12T11:49:32.536Z,102358.72
2022-11-12T11:52:35.634Z,102350.03
2022-11-12T11:55:13.861Z,102356.13
2022-11-12T11:57:45.791Z,102329.00
2022-11-12T12:00:20.767Z,102314.22
2022-11-12T12:03:08.929Z,102351.78
2022-11-12T12:05:54.092Z,102341.22
2022-11-12T12:08:49.655Z,102330.72
2022-11-12T12:11:58.749Z,102320.28
2022-11-12T12:14:43.827Z,102345.59
2022-11-12T12:17:23.422Z,102348.16
2022-11-12T12:20:19.085Z,102339.50
2022-11-12T12:22:51.285Z,102347.25
2022-11-12T12:25:26.308Z,102356.88
2022-11-12T12:28:05.747Z,102311.44
2022-11-12T12:30:36.451Z,102343.63
2022-11-12T12:33:14.953Z,102251.22
2022-11-12T12:35:51.669Z,102355.94
2022-11-12T12:39:02.722Z,102346.22
2022-11-12T12:41:45.488Z,102325.09
2022-11-12T12:44:12.421Z,102275.34
2022-11-12T12:46:56.726Z,102262.19
2022-11-12T12:49:32.712Z,102311.06
2022-11-12T12:51:59.678Z,102317.13
2022-11-12T12:54:35.335Z,102313.38
2022-11-12T12:57:03.982Z,102195.84
2022-11-12T12:59:30.450Z,102236.69
2022-11-12T13:02:01.092Z,102292.47
2022-11-12T13:04:50.230Z,102303.75
2022-11-12T13:07:16.588Z,102292.50
2022-11-12T13:09:43.260Z,102282.81
2022-11-12T13:12:09.732Z,102248.00
2022-11-12T13:14:36.052Z,102308.97
2022-11-12T13:17:06.810Z,102293.31
2022-11-12T13:19:44.083Z,102268.78
2022-11-12T13:22:19.311Z,102303.56
2022-11-12T13:25:20.072Z,102308.81
2022-11-12T13:27:46.990Z,102302.59
2022-11-12T13:30:13.230Z,102300.81
2022-11-12T13:32:48.832Z,102306.91
2022-11-12T13:35:26.661Z,102292.81
2022-11-12T13:38:03.468Z,102294.44
2022-11-12T13:40:29.788Z,102296.22
2022-11-12T13:43:11.471Z,102243.84
2022-11-12T13:45:45.108Z,102232.53
2022-11-12T13:48:21.536Z,102292.69
2022-11-12T13:50:54.945Z,102291.78
2022-11-12T13:53:27.730Z,102268.34
2022-11-12T13:55:54.921Z,102292.66
2022-11-12T13:58:33.521Z,102261.19
2022-11-12T14:01:04.867Z,102252.47
2022-11-12T14:03:41.485Z,102169.66
2022-11-12T14:06:16.587Z,102280.41
2022-11-12T14:09:02.753Z,102215.84
2022-11-12T14:11:46.193Z,102263.66
2022-11-12T14:14:26.892Z,102248.91
2022-11-12T14:17:05.400Z,102257.50
2022-11-12T14:19:54.152Z,102233.22
2022-11-12T14:22:22.010Z,102256.72
2022-11-12T14:24:59.941Z,102229.69
2022-11-12T14:27:26.237Z,102251.47
2022-11-12T14:30:10.997Z,102250.53
2022-11-12T14:32:38.645Z,102226.16
2022-11-12T14:35:35.270Z,102249.72
2022-11-12T14:38:23.420Z,102246.13
2022-11-12T14:41:11.458Z,102125.03
2022-11-12T14:43:42.760Z,102123.25
2022-11-12T14:46:21.652Z,102139.69
2022-11-12T14:48:54.170Z,102152.94
2022-11-12T14:51:22.317Z,102126.78
2022-11-12T14:53:56.481Z,102252.34
2022-11-12T14:56:45.115Z,102229.53
2022-11-12T14:59:13.934Z,102138.97
2022-11-12T15:02:21.775Z,102240.09
2022-11-12T15:04:36.889Z,102217.56
2022-11-12T15:07:03.307Z,102183.78
2022-11-12T15:09:35.589Z,102240.53
2022-11-12T15:12:09.347Z,102205.78
2022-11-12T15:14:35.738Z,102163.25
2022-11-12T15:17:04.666Z,102218.97
2022-11-12T15:19:31.408Z,102203.34
2022-11-12T15:22:03.064Z,102151.16
2022-11-12T15:24:35.070Z,102207.78
2022-11-12T15:27:22.974Z,102228.69
2022-11-12T15:29:49.297Z,102124.19
2022-11-12T15:32:30.829Z,102227.06
2022-11-12T15:34:57.144Z,102207.13
2022-11-12T15:37:27.118Z,102211.44
2022-11-12T15:39:58.138Z,102220.28
2022-11-12T15:42:26.495Z,102222.16
2022-11-12T15:44:59.375Z,102218.84
2022-11-12T15:47:25.724Z,102195.38
2022-11-12T15:49:54.151Z,102201.63
2022-11-12T15:52:20.584Z,102200.78
2022-11-12T15:54:47.619Z,102220.88
2022-11-12T15:57:27.001Z,102209.53
2022-11-12T16:00:30.674Z,102174.69
2022-11-12T16:03:00.020Z,102208.75
2022-11-12T16:05:26.384Z,102185.25
2022-11-12T16:07:52.760Z,102156.47
2022-11-12T16:10:19.632Z,102085.09
2022-11-12T16:12:47.973Z,102015.38
2022-11-12T16:15:23.244Z,102193.38
2022-11-12T16:17:49.567Z,102152.38
2022-11-12T16:20:21.210Z,102116.66
2022-11-12T16:22:49.005Z,102141.13
2022-11-12T16:25:15.958Z,102202.16
2022-11-12T16:27:42.871Z,102183.88
2022-11-12T16:30:24.405Z,102172.50
2022-11-12T16:32:50.741Z,102177.75
2022-11-12T16:35:17.630Z,102198.72
2022-11-12T16:37:45.419Z,102137.69
2022-11-12T16:40:24.664Z,102131.59
2022-11-12T16:42:51.042Z,102169.19
2022-11-12T16:45:20.300Z,102094.13
2022-11-12T16:47:55.440Z,102186.66
2022-11-12T16:50:24.681Z,102196.31
2022-11-12T16:52:51.277Z,102193.69
2022-11-12T16:55:17.629Z,102161.41
2022-11-12T16:57:44.098Z,102185.06
2022-11-12T17:00:15.436Z,102192.00
2022-11-12T17:02:46.119Z,102163.16
2022-11-12T17:05:24.165Z,102146.59
2022-11-12T17:07:55.377Z,102086.34
2022-11-12T17:10:25.215Z,102129.06
2022-11-12T17:12:52.322Z,102146.47
2022-11-12T17:15:18.933Z,102179.63
2022-11-12T17:17:45.435Z,102160.41
2022-11-12T17:20:11.796Z,102168.25
2022-11-12T17:22:38.215Z,102057.38
2022-11-12T17:25:06.628Z,102040.69
2022-11-12T17:27:33.028Z,102140.97
2022-11-12T17:29:59.385Z,102088.66
2022-11-12T17:32:25.759Z,102147.97
2022-11-12T17:34:52.079Z,102093.81
2022-11-12T17:37:18.467Z,102155.66
2022-11-12T17:39:44.883Z,102122.44
2022-11-12T17:42:11.214Z,102102.44
2022-11-12T17:44:37.560Z,102107.69
2022-11-12T17:47:03.981Z,102116.44
2022-11-12T17:49:30.317Z,102153.97
2022-11-12T17:51:56.640Z,102096.47
2022-11-12T17:54:22.995Z,102133.97
2022-11-12T17:56:49.323Z,102155.78
2022-11-12T17:59:15.643Z,102070.22
2022-11-12T18:01:41.995Z,102130.47
2022-11-12T18:04:10.286Z,102032.81
2022-11-12T18:06:36.788Z,102156.72
2022-11-12T18:09:11.780Z,102139.31
2022-11-12T18:11:56.672Z,102136.75
2022-11-12T18:14:23.243Z,102127.16
2022-11-12T18:16:49.670Z,102145.47
2022-11-12T18:19:16.074Z,102113.22
2022-11-12T18:21:42.542Z,102065.25
2022-11-12T18:24:14.301Z,102137.66
2022-11-12T18:26:41.054Z,102144.69
2022-11-12T18:29:07.535Z,102118.50
2022-11-12T18:31:33.905Z,102093.19
2022-11-12T18:34:00.372Z,102036.53
2022-11-12T18:36:26.803Z,102115.00
2022-11-12T18:38:54.663Z,102081.81
2022-11-12T18:41:25.583Z,102147.22
2022-11-12T18:43:53.279Z,102146.34
2022-11-12T18:46:19.947Z,102104.47
2022-11-12T18:48:47.296Z,102110.59
2022-11-12T18:51:15.675Z,102135.94
2022-11-12T18:53:42.947Z,102128.94
2022-11-12T18:56:13.119Z,102141.16
2022-11-12T18:58:39.509Z,102076.59
2022-11-12T19:01:17.719Z,102134.16
2022-11-12T19:03:44.346Z,102095.78
2022-11-12T19:06:12.547Z,102038.25
2022-11-12T19:08:39.195Z,102097.56
2022-11-12T19:11:16.398Z,102098.47
2022-11-12T19:13:43.035Z,102018.25
2022-11-12T19:16:14.151Z,102122.91
2022-11-12T19:18:41.748Z,102026.09
2022-11-12T19:21:17.143Z,102122.03
2022-11-12T19:23:43.559Z,102078.41
2022-11-12T19:26:15.087Z,102127.25
2022-11-12T19:28:42.336Z,102125.50
2022-11-12T19:31:14.383Z,102119.34
2022-11-12T19:33:40.979Z,102095.81
2022-11-12T19:36:10.046Z,102084.44
2022-11-12T19:38:36.614Z,102112.34
2022-11-12T19:41:04.854Z,102071.34
2022-11-12T19:43:31.645Z,102115.84
2022-11-12T19:45:58.098Z,102076.59
2022-11-12T19:48:25.394Z,102101.84
2022-11-12T19:50:52.299Z,102052.13
2022-11-12T19:53:19.191Z,102103.53
2022-11-12T19:55:45.523Z,102074.69
2022-11-12T19:58:11.839Z,102081.66
2022-11-12T20:00:38.382Z,102101.72
2022-11-12T20:03:10.050Z,102087.72
2022-11-12T20:05:36.478Z,102047.66
2022-11-12T20:08:02.858Z,102071.19
2022-11-12T20:10:29.352Z,102048.47
2022-11-12T20:12:55.765Z,101964.84
2022-11-12T20:15:22.169Z,102038.91
2022-11-12T20:17:48.453Z,102035.34
2022-11-12T20:20:15.112Z,102044.97
2022-11-12T20:22:41.430Z,102042.31
2022-11-12T20:25:08.176Z,102059.75
2022-11-12T20:27:34.552Z,102030.09
2022-11-12T20:30:00.887Z,102085.91
2022-11-12T20:32:27.267Z,102065.00
2022-11-12T20:34:53.669Z,102055.47
2022-11-12T20:37:20.104Z,102011.84
2022-11-12T20:39:46.570Z,102047.56
2022-11-12T20:42:12.975Z,101953.47
2022-11-12T20:44:39.335Z,102085.88
2022-11-12T20:47:05.650Z,102033.59
2022-11-12T20:49:31.999Z,102066.72
2022-11-12T20:51:58.317Z,101955.13
2022-11-12T20:54:24.721Z,102012.66
2022-11-12T20:56:51.138Z,102000.44
2022-11-12T20:59:17.488Z,102050.19
2022-11-12T21:01:43.999Z,101949.06
2022-11-12T21:04:12.244Z,101882.91
2022-11-12T21:06:38.917Z,102069.34
2022-11-12T21:09:05.386Z,102039.78
2022-11-12T21:11:31.758Z,102056.38
2022-11-12T21:14:00.555Z,102069.47
2022-11-12T21:16:27.021Z,101998.03
2022-11-12T21:18:53.359Z,102010.25
2022-11-12T21:21:21.113Z,102020.69
2022-11-12T21:23:50.128Z,102080.06
2022-11-12T21:26:19.841Z,102043.41
2022-11-12T21:28:52.416Z,102039.09
2022-11-12T21:31:21.421Z,102035.63
2022-11-12T21:33:55.462Z,102033.03
2022-11-12T21:36:23.301Z,102071.38
2022-11-12T21:38:49.821Z,102049.63
2022-11-12T21:41:18.992Z,102026.06
2022-11-12T21:43:46.168Z,102067.00
2022-11-12T21:46:21.298Z,102059.22
2022-11-12T21:48:52.211Z,102045.22
2022-11-12T21:51:28.790Z,101967.59
2022-11-12T21:53:56.051Z,102060.00
2022-11-12T21:56:22.882Z,102046.06
2022-11-12T21:58:49.260Z,102008.63
2022-11-12T22:01:25.135Z,102052.25
2022-11-12T22:03:53.233Z,102054.00
2022-11-12T22:06:21.440Z,102023.50
2022-11-12T22:08:51.517Z,102020.84
2022-11-12T22:11:18.170Z,102029.56
2022-11-12T22:13:44.514Z,101994.75
2022-11-12T22:16:19.705Z,101987.78
2022-11-12T22:18:47.699Z,102046.19
2022-11-12T22:21:22.754Z,102020.97
2022-11-12T22:23:49.798Z,101967.72
2022-11-12T22:26:20.526Z,101991.25
2022-11-12T22:28:47.795Z,102033.13
2022-11-12T22:31:17.115Z,102010.50
2022-11-12T22:33:43.655Z,101981.69
2022-11-12T22:36:12.742Z,102006.97
2022-11-12T22:38:41.745Z,102036.66
2022-11-12T22:41:13.843Z,101996.53
2022-11-12T22:43:40.974Z,102041.91
2022-11-12T22:46:21.973Z,102030.53
2022-11-12T22:48:48.708Z,102003.50
2022-11-12T22:51:17.946Z,101987.81
2022-11-12T22:53:44.679Z,102000.94
2022-11-12T22:56:13.983Z,101955.56
2022-11-12T22:58:43.086Z,101974.75
2022-11-12T23:01:19.035Z,102030.56
2022-11-12T23:03:45.463Z,102007.00
2022-11-12T23:06:12.211Z,101998.34
2022-11-12T23:08:38.576Z,101981.75
2022-11-12T23:11:10.507Z,101979.16
2022-11-12T23:13:37.863Z,101973.03
2022-11-12T23:16:12.901Z,102015.81
2022-11-12T23:18:39.646Z,101993.09
2022-11-12T23:21:15.504Z,102012.34
2022-11-12T23:23:44.092Z,101979.19
2022-11-12T23:26:13.685Z,101972.22
2022-11-12T23:28:40.429Z,101945.19
2022-11-12T23:31:13.734Z,102013.25
2022-11-12T23:33:44.418Z,101973.97
2022-11-12T23:36:11.287Z,101886.75
2022-11-12T23:38:37.631Z,101888.50
2022-11-12T23:41:05.042Z,102012.34
2022-11-12T23:43:31.772Z,102011.47
2022-11-12T23:45:58.587Z,102002.72
2022-11-12T23:48:25.239Z,101950.38
2022-11-12T23:50:59.652Z,101973.03
2022-11-12T23:53:25.985Z,101933.78
2022-11-12T23:55:52.668Z,101971.28
2022-11-12T23:58:19.006Z,101958.19
